Time;durP1;ratioP1;P1;durP2;ratioP2;P2;SDS_P1;SDS_P2;PMS_P1;PMS_P2;Temp;Humidity;BMP_temperature;BMP_pressure;BME280_temperature;BME280_humidity;BME280_pressure;Samples;Min_cycle;Max_cycle;Signal;HPM_P1;HPM_P2
2023/09/25 00:00:23;;;;;;;2.73;2.00;;;10.80;17.10;;;;;;5040879;28;20429;-71
2023/09/25 00:02:48;;;;;;;3.20;1.90;;;11.00;15.90;;;;;;5041841;28;20445;-71
2023/09/25 00:05:16;;;;;;;5.37;1.80;;;11.10;14.80;;;;;;5041023;28;20495;-71
2023/09/25 00:07:42;;;;;;;2.40;1.30;;;11.10;14.80;;;;;;5039813;28;20774;-70
2023/09/25 00:10:07;;;;;;;3.37;1.50;;;11.20;14.20;;;;;;5039852;28;20424;-71
2023/09/25 00:12:33;;;;;;;4.73;1.70;;;11.30;13.40;;;;;;5039191;28;20422;-71
2023/09/25 00:14:58;;;;;;;3.07;1.80;;;11.30;13.10;;;;;;5055516;28;20622;-71
2023/09/25 00:17:24;;;;;;;2.50;1.67;;;11.40;12.70;;;;;;5038733;28;20195;-71
2023/09/25 00:19:49;;;;;;;3.80;1.93;;;11.40;12.70;;;;;;5055113;28;20711;-70
2023/09/25 00:22:15;;;;;;;4.67;1.97;;;11.40;12.30;;;;;;5040683;28;20199;-71
2023/09/25 00:24:41;;;;;;;3.17;1.70;;;11.50;11.70;;;;;;5055033;28;20195;-71
2023/09/25 00:27:06;;;;;;;2.90;1.50;;;11.50;11.60;;;;;;5054775;28;20195;-74
2023/09/25 00:29:32;;;;;;;2.47;1.63;;;11.50;11.80;;;;;;5040400;28;20173;-72
2023/09/25 00:31:57;;;;;;;2.63;1.53;;;11.50;11.80;;;;;;5039815;28;20172;-74
2023/09/25 00:34:23;;;;;;;3.03;1.90;;;11.40;12.10;;;;;;5038834;28;20187;-74
2023/09/25 00:36:48;;;;;;;3.73;1.90;;;11.40;12.00;;;;;;5039131;28;20651;-74
2023/09/25 00:39:14;;;;;;;2.37;1.43;;;11.40;12.00;;;;;;5039567;28;20183;-73
2023/09/25 00:41:40;;;;;;;4.23;1.70;;;11.30;12.00;;;;;;5038641;28;20183;-74
2023/09/25 00:44:05;;;;;;;2.73;1.80;;;11.20;12.60;;;;;;5038597;28;20198;-73
2023/09/25 00:46:31;;;;;;;3.37;1.47;;;11.20;13.00;;;;;;5039698;28;20678;-74
2023/09/25 00:48:57;;;;;;;3.30;1.83;;;11.10;13.40;;;;;;5038762;28;20195;-74
2023/09/25 00:51:23;;;;;;;3.23;1.97;;;11.10;13.50;;;;;;5039594;28;20416;-74
2023/09/25 00:53:49;;;;;;;3.43;1.50;;;10.90;14.50;;;;;;5039080;28;20986;-73
2023/09/25 00:56:15;;;;;;;2.63;1.40;;;10.80;15.30;;;;;;5038353;28;20182;-74
2023/09/25 00:58:41;;;;;;;2.93;1.50;;;10.80;18.50;;;;;;5037890;28;20487;-74
2023/09/25 01:01:11;;;;;;;2.97;1.50;;;10.70;16.80;;;;;;5038592;28;20183;-74
2023/09/25 01:03:36;;;;;;;3.13;2.30;;;10.50;17.00;;;;;;5053863;28;20449;-74
2023/09/25 01:06:04;;;;;;;3.20;1.53;;;10.40;17.70;;;;;;5039217;28;20852;-74
2023/09/25 01:08:30;;;;;;;3.60;1.80;;;10.60;17.10;;;;;;5036301;28;20229;-74
2023/09/25 01:10:55;;;;;;;3.93;2.20;;;10.80;15.00;;;;;;5035554;28;20488;-74
2023/09/25 01:13:21;;;;;;;2.33;1.50;;;11.00;14.70;;;;;;5034272;28;20195;-74
2023/09/25 01:15:47;;;;;;;3.90;1.73;;;11.20;13.40;;;;;;5050194;28;20577;-74
2023/09/25 01:18:12;;;;;;;3.13;1.87;;;11.20;13.50;;;;;;5035303;28;20701;-75
2023/09/25 01:20:38;;;;;;;2.87;1.70;;;11.10;13.80;;;;;;5035084;28;20646;-74
2023/09/25 01:23:03;;;;;;;3.77;2.47;;;11.00;16.20;;;;;;5034948;28;20214;-74
2023/09/25 01:25:29;;;;;;;3.63;2.50;;;10.80;16.30;;;;;;5034905;28;20179;-73
2023/09/25 01:27:55;;;;;;;4.30;2.30;;;10.70;17.60;;;;;;5034897;28;20199;-75
2023/09/25 01:30:20;;;;;;;2.70;1.70;;;10.50;17.60;;;;;;5034508;28;20169;-74
2023/09/25 01:32:48;;;;;;;3.77;1.70;;;10.50;18.70;;;;;;5032898;28;20178;-74
2023/09/25 01:35:16;;;;;;;2.37;1.50;;;10.30;19.40;;;;;;5034488;28;20651;-74
2023/09/25 01:37:42;;;;;;;3.90;2.07;;;10.20;20.90;;;;;;5049746;28;20541;-75
2023/09/25 01:40:17;;;;;;;3.47;1.83;;;10.10;21.90;;;;;;5049584;28;20474;-74
2023/09/25 01:42:47;;;;;;;6.23;1.97;;;10.00;22.50;;;;;;5034176;28;20770;-73
2023/09/25 01:45:17;;;;;;;6.13;2.60;;;9.90;24.80;;;;;;5034322;28;20412;-74
2023/09/25 01:47:49;;;;;;;4.00;2.13;;;9.80;25.40;;;;;;5034078;28;20859;-73
2023/09/25 01:50:19;;;;;;;3.07;1.90;;;9.60;27.70;;;;;;5035006;28;20442;-69
2023/09/25 01:52:47;;;;;;;3.40;2.63;;;9.40;27.30;;;;;;5034880;28;20414;-70
2023/09/25 01:55:13;;;;;;;2.50;1.77;;;9.20;28.80;;;;;;5034290;28;20421;-70
2023/09/25 01:57:39;;;;;;;3.43;2.80;;;9.10;28.90;;;;;;5049567;28;20519;-70
2023/09/25 02:00:09;;;;;;;4.70;2.97;;;8.90;31.00;;;;;;5049112;28;20288;-70
2023/09/25 02:02:36;;;;;;;3.37;2.23;;;9.00;34.00;;;;;;5034360;28;20348;-69
2023/09/25 02:05:01;;;;;;;6.20;3.20;;;8.70;33.40;;;;;;5033891;28;20764;-69
2023/09/25 02:07:27;;;;;;;4.20;2.83;;;8.60;33.80;;;;;;5034089;28;20451;-69
2023/09/25 02:09:53;;;;;;;2.97;2.10;;;8.50;35.90;;;;;;5033444;28;20184;-69
2023/09/25 02:12:18;;;;;;;4.40;2.37;;;8.50;36.60;;;;;;5032050;28;20430;-69
2023/09/25 02:14:44;;;;;;;3.47;2.60;;;8.40;37.80;;;;;;5033050;28;20186;-69
2023/09/25 02:17:09;;;;;;;3.90;2.97;;;8.40;37.00;;;;;;5031994;28;20208;-68
2023/09/25 02:19:36;;;;;;;4.30;2.00;;;8.30;39.50;;;;;;5033179;28;20183;-69
2023/09/25 02:22:06;;;;;;;3.77;2.90;;;8.30;39.40;;;;;;5032063;28;20337;-69
2023/09/25 02:24:33;;;;;;;5.10;3.00;;;8.20;40.80;;;;;;5033006;28;20411;-68
2023/09/25 02:26:58;;;;;;;5.13;3.20;;;8.20;41.30;;;;;;5033269;28;20501;-69
2023/09/25 02:29:24;;;;;;;3.70;2.03;;;8.20;43.40;;;;;;5032985;28;20554;-68
2023/09/25 02:31:49;;;;;;;3.83;2.57;;;8.20;42.50;;;;;;5032975;28;20213;-68
2023/09/25 02:34:16;;;;;;;4.70;2.20;;;8.10;42.90;;;;;;5032934;28;20180;-69
2023/09/25 02:36:42;;;;;;;4.30;2.63;;;8.00;42.80;;;;;;5032919;28;20573;-68
2023/09/25 02:39:09;;;;;;;5.07;2.83;;;8.00;45.00;;;;;;5032933;28;20413;-68
2023/09/25 02:41:35;;;;;;;4.73;2.67;;;8.00;45.80;;;;;;5032836;28;20175;-69
2023/09/25 02:44:00;;;;;;;4.53;2.93;;;7.90;44.80;;;;;;5028136;28;20464;-69
2023/09/25 02:46:26;;;;;;;4.93;3.20;;;7.80;46.40;;;;;;5028765;28;20188;-69
2023/09/25 02:48:51;;;;;;;5.83;3.13;;;7.80;44.60;;;;;;5032613;28;20533;-69
2023/09/25 02:51:17;;;;;;;5.40;4.07;;;7.70;46.30;;;;;;5032028;28;20189;-69
2023/09/25 02:53:42;;;;;;;4.43;2.63;;;7.70;47.70;;;;;;5012723;28;20173;-69
2023/09/25 02:56:08;;;;;;;4.80;2.50;;;7.70;48.20;;;;;;5012999;28;20191;-69
2023/09/25 02:58:33;;;;;;;4.57;2.80;;;7.60;47.70;;;;;;5012716;28;20203;-69
2023/09/25 03:01:00;;;;;;;8.10;3.20;;;7.60;48.40;;;;;;5013059;28;20192;-70
2023/09/25 03:03:28;;;;;;;4.27;3.00;;;7.60;49.70;;;;;;5012290;28;20207;-68
2023/09/25 03:05:54;;;;;;;5.03;3.67;;;7.50;50.10;;;;;;5011588;28;20793;-69
2023/09/25 03:08:19;;;;;;;3.50;2.70;;;7.50;50.20;;;;;;5012828;28;20451;-69
2023/09/25 03:10:45;;;;;;;4.57;2.70;;;7.50;50.20;;;;;;5012840;28;20422;-68
2023/09/25 03:13:11;;;;;;;4.50;3.33;;;7.50;51.10;;;;;;5012350;28;20228;-69
2023/09/25 03:15:36;;;;;;;4.23;2.40;;;7.50;50.20;;;;;;5012586;28;20201;-68
2023/09/25 03:18:02;;;;;;;4.80;3.17;;;7.40;50.10;;;;;;5012363;28;20192;-68
2023/09/25 03:20:28;;;;;;;3.27;2.73;;;7.40;50.20;;;;;;5012425;28;20192;-69
2023/09/25 03:22:54;;;;;;;5.40;3.40;;;7.40;50.10;;;;;;5012177;28;20196;-69
2023/09/25 03:25:20;;;;;;;5.73;4.00;;;7.40;51.20;;;;;;5012344;28;20447;-69
2023/09/25 03:27:46;;;;;;;5.50;3.50;;;7.30;51.30;;;;;;5012231;28;20482;-69
2023/09/25 03:30:13;;;;;;;4.73;3.40;;;7.20;52.50;;;;;;5012277;28;20778;-68
2023/09/25 03:32:38;;;;;;;12.50;4.27;;;7.20;52.80;;;;;;5011585;28;20176;-68
2023/09/25 03:35:04;;;;;;;5.30;3.43;;;7.10;53.40;;;;;;5012403;28;20502;-68
2023/09/25 03:37:30;;;;;;;4.10;2.93;;;7.10;54.80;;;;;;5012228;28;20204;-68
2023/09/25 03:39:56;;;;;;;4.57;2.80;;;7.00;54.60;;;;;;5014093;28;20439;-68
2023/09/25 03:42:21;;;;;;;5.07;3.20;;;7.00;54.30;;;;;;5012114;28;20461;-69
2023/09/25 03:44:47;;;;;;;6.37;2.80;;;6.90;55.30;;;;;;5011975;28;20214;-68
2023/09/25 03:47:13;;;;;;;3.60;2.80;;;6.90;55.40;;;;;;5012006;28;20200;-69
2023/09/25 03:49:39;;;;;;;5.83;4.20;;;6.80;55.30;;;;;;5012082;28;20171;-68
2023/09/25 03:52:05;;;;;;;4.27;3.30;;;6.80;54.50;;;;;;5012010;28;20779;-68
2023/09/25 03:54:31;;;;;;;4.53;2.40;;;6.80;55.90;;;;;;5011819;28;20426;-68
2023/09/25 03:56:56;;;;;;;6.13;3.10;;;6.60;54.30;;;;;;5026979;28;20438;-68
2023/09/25 03:59:22;;;;;;;4.43;3.00;;;6.60;55.40;;;;;;5011975;28;20540;-70
2023/09/25 04:01:48;;;;;;;8.23;3.27;;;6.50;56.60;;;;;;5011913;28;20186;-68
2023/09/25 04:04:13;;;;;;;4.23;3.00;;;6.50;56.60;;;;;;5011738;28;20175;-68
2023/09/25 04:06:39;;;;;;;8.03;3.40;;;6.50;56.70;;;;;;5027071;28;20419;-68
2023/09/25 04:09:07;;;;;;;5.00;3.60;;;6.50;58.60;;;;;;5011712;28;20215;-68
2023/09/25 04:11:33;;;;;;;4.53;3.23;;;6.50;57.40;;;;;;5011705;28;20206;-69
2023/09/25 04:14:02;;;;;;;4.57;3.23;;;6.50;58.20;;;;;;5011715;28;20861;-68
2023/09/25 04:16:33;;;;;;;3.50;3.10;;;6.50;57.60;;;;;;5011817;28;20419;-68
2023/09/25 04:18:58;;;;;;;5.37;3.43;;;6.50;55.80;;;;;;5011785;28;20469;-69
2023/09/25 04:21:24;;;;;;;4.23;3.20;;;6.40;55.80;;;;;;5011694;28;20411;-68
2023/09/25 04:23:50;;;;;;;4.03;2.63;;;6.40;56.10;;;;;;5011356;28;20208;-68
2023/09/25 04:26:16;;;;;;;6.17;4.20;;;6.40;57.70;;;;;;5011701;28;20248;-68
2023/09/25 04:28:42;;;;;;;5.77;3.60;;;6.40;56.50;;;;;;5011692;28;20216;-68
2023/09/25 04:31:08;;;;;;;4.77;2.70;;;6.30;57.80;;;;;;5011666;28;20464;-69
2023/09/25 04:33:35;;;;;;;4.90;3.80;;;6.40;57.60;;;;;;5010325;28;20429;-69
2023/09/25 04:36:01;;;;;;;5.60;4.20;;;6.40;59.10;;;;;;5011745;28;20698;-68
2023/09/25 04:38:27;;;;;;;5.17;3.43;;;6.40;57.70;;;;;;5015116;28;20465;-72
2023/09/25 04:40:53;;;;;;;6.10;3.50;;;6.30;57.80;;;;;;5031348;28;20425;-68
2023/09/25 04:43:19;;;;;;;5.37;3.77;;;6.20;58.10;;;;;;5031677;28;20452;-69
2023/09/25 04:45:46;;;;;;;6.83;3.10;;;6.30;59.70;;;;;;5035248;28;20414;-69
2023/09/25 04:48:13;;;;;;;5.20;2.90;;;6.20;58.50;;;;;;5035132;28;20202;-68
2023/09/25 04:50:40;;;;;;;4.60;3.93;;;6.30;60.30;;;;;;5034909;28;20745;-68
2023/09/25 04:53:08;;;;;;;3.83;3.00;;;6.20;59.60;;;;;;5034756;28;20421;-68
2023/09/25 04:55:34;;;;;;;5.03;3.20;;;6.20;59.80;;;;;;5033615;28;20508;-69
2023/09/25 04:57:59;;;;;;;5.97;3.40;;;6.10;58.90;;;;;;5034971;28;20992;-69
2023/09/25 05:00:26;;;;;;;5.00;2.67;;;6.10;60.00;;;;;;5034748;28;20697;-69
2023/09/25 05:02:54;;;;;;;4.87;3.00;;;6.10;59.10;;;;;;5034359;28;20253;-68
2023/09/25 05:05:20;;;;;;;3.60;2.83;;;6.10;60.60;;;;;;5034730;28;20418;-69
2023/09/25 05:07:50;;;;;;;6.37;3.87;;;6.20;58.20;;;;;;5034429;28;20545;-69
2023/09/25 05:10:18;;;;;;;3.90;3.10;;;6.20;58.90;;;;;;5049955;28;20442;-68
2023/09/25 05:12:44;;;;;;;3.77;2.63;;;6.20;58.90;;;;;;5034056;28;20417;-69
2023/09/25 05:15:11;;;;;;;5.70;3.63;;;6.30;60.30;;;;;;5049688;28;20780;-69
2023/09/25 05:17:37;;;;;;;3.93;3.27;;;6.10;59.00;;;;;;5049885;28;20644;-69
2023/09/25 05:20:11;;;;;;;6.03;3.53;;;6.10;61.60;;;;;;5049632;28;20778;-68
2023/09/25 05:22:38;;;;;;;7.73;3.90;;;6.20;61.40;;;;;;5049601;28;20994;-68
2023/09/25 05:25:07;;;;;;;4.87;4.37;;;6.20;60.00;;;;;;5049433;28;20861;-70
2023/09/25 05:27:33;;;;;;;4.80;3.50;;;6.10;61.00;;;;;;5034261;28;20487;-69
2023/09/25 05:29:59;;;;;;;5.27;4.30;;;6.00;60.40;;;;;;5033029;28;20429;-69
2023/09/25 05:32:24;;;;;;;5.70;2.77;;;6.10;60.50;;;;;;5034196;28;20420;-70
2023/09/25 05:34:50;;;;;;;4.70;3.10;;;6.10;63.20;;;;;;5033998;28;20186;-69
2023/09/25 05:37:15;;;;;;;6.23;3.47;;;6.20;60.90;;;;;;5049403;28;20210;-68
2023/09/25 05:39:40;;;;;;;6.13;4.60;;;6.20;62.00;;;;;;5032552;28;20187;-68
2023/09/25 05:42:06;;;;;;;8.93;4.40;;;6.30;61.60;;;;;;5032631;28;20206;-68
2023/09/25 05:44:32;;;;;;;5.77;3.97;;;6.20;60.80;;;;;;5033918;28;20182;-69
2023/09/25 05:46:57;;;;;;;5.40;3.77;;;6.30;63.30;;;;;;5032940;28;20188;-68
2023/09/25 05:49:23;;;;;;;9.73;5.30;;;6.40;61.40;;;;;;5033507;28;20205;-68
2023/09/25 05:51:53;;;;;;;5.63;3.70;;;6.40;62.00;;;;;;5033233;28;20207;-69
2023/09/25 05:54:19;;;;;;;4.80;3.20;;;6.40;59.10;;;;;;5033161;28;20202;-68
2023/09/25 05:56:45;;;;;;;4.10;3.60;;;6.40;59.70;;;;;;5033573;28;20418;-68
2023/09/25 05:59:11;;;;;;;6.67;3.83;;;6.40;59.00;;;;;;5033619;28;20475;-69
2023/09/25 06:01:37;;;;;;;5.40;2.93;;;6.40;59.00;;;;;;5033284;28;20216;-68
2023/09/25 06:04:03;;;;;;;3.90;3.13;;;6.50;59.10;;;;;;5032920;28;20477;-69
2023/09/25 06:06:28;;;;;;;6.40;3.77;;;6.60;56.70;;;;;;5033439;28;20187;-68
2023/09/25 06:08:54;;;;;;;9.57;3.40;;;6.60;56.50;;;;;;5033317;28;20325;-68
2023/09/25 06:11:19;;;;;;;6.13;4.10;;;6.70;55.20;;;;;;5033050;28;20274;-68
2023/09/25 06:13:45;;;;;;;4.40;3.23;;;6.80;55.60;;;;;;5031871;28;20190;-69
2023/09/25 06:16:11;;;;;;;4.83;3.50;;;6.80;54.50;;;;;;5033253;28;20199;-69
2023/09/25 06:18:36;;;;;;;6.07;3.90;;;7.00;55.60;;;;;;5032981;28;20207;-69
2023/09/25 06:21:02;;;;;;;3.80;3.00;;;7.50;58.10;;;;;;5033242;28;20778;-69
2023/09/25 06:23:27;;;;;;;4.03;2.90;;;7.70;47.00;;;;;;5031703;28;20822;-72
2023/09/25 06:25:53;;;;;;;7.50;3.60;;;7.90;42.10;;;;;;5033296;28;20262;-76
2023/09/25 06:28:23;;;;;;;5.77;3.37;;;7.90;39.90;;;;;;5032856;28;20692;-70
2023/09/25 06:30:49;;;;;;;9.93;3.03;;;8.20;40.70;;;;;;5032859;28;20437;-70
2023/09/25 06:33:15;;;;;;;7.70;3.10;;;8.30;37.40;;;;;;5032788;28;20418;-71
2023/09/25 06:35:40;;;;;;;3.30;2.43;;;8.40;35.80;;;;;;5033081;28;20191;-70
2023/09/25 06:38:07;;;;;;;6.10;3.73;;;8.50;34.00;;;;;;5032991;28;20215;-70
2023/09/25 06:40:34;;;;;;;4.57;2.53;;;8.70;31.80;;;;;;5034689;28;20178;-69
2023/09/25 06:42:59;;;;;;;5.63;3.47;;;8.80;31.00;;;;;;5032734;28;20455;-69
2023/09/25 06:45:25;;;;;;;7.20;3.23;;;9.00;32.90;;;;;;5032722;28;20426;-70
2023/09/25 06:47:51;;;;;;;4.67;3.30;;;9.40;30.40;;;;;;5031623;28;20207;-70
2023/09/25 06:50:17;;;;;;;11.60;3.87;;;10.10;25.40;;;;;;5032467;28;20176;-70
2023/09/25 06:52:42;;;;;;;7.10;3.33;;;10.50;21.80;;;;;;5032615;28;20425;-69
2023/09/25 06:55:09;;;;;;;4.07;2.83;;;10.50;18.90;;;;;;5033678;28;20963;-70
2023/09/25 06:57:35;;;;;;;3.83;2.73;;;10.30;20.40;;;;;;5032560;28;20518;-70
2023/09/25 07:00:01;;;;;;;6.67;3.40;;;10.10;21.10;;;;;;5032760;28;20418;-70
2023/09/25 07:02:26;;;;;;;5.40;3.10;;;10.00;22.60;;;;;;5032227;28;20536;-70
2023/09/25 07:04:52;;;;;;;6.60;3.80;;;9.80;23.20;;;;;;5031991;28;20213;-70
2023/09/25 07:07:18;;;;;;;4.50;3.60;;;9.90;23.30;;;;;;5030581;28;20214;-69
2023/09/25 07:09:45;;;;;;;5.67;3.40;;;10.00;22.60;;;;;;5033154;28;20723;-71
2023/09/25 07:12:14;;;;;;;4.67;3.07;;;9.90;23.40;;;;;;5032897;28;20450;-70
2023/09/25 07:14:39;;;;;;;5.90;3.83;;;10.00;23.80;;;;;;5030588;28;20607;-70
2023/09/25 07:17:06;;;;;;;7.07;3.43;;;10.00;22.60;;;;;;5031701;28;20449;-69
2023/09/25 07:19:31;;;;;;;5.83;3.77;;;10.10;22.70;;;;;;5031764;28;20179;-66
2023/09/25 07:21:57;;;;;;;4.80;2.80;;;10.10;22.70;;;;;;5030714;28;20425;-69
2023/09/25 07:24:22;;;;;;;4.83;3.13;;;10.20;22.70;;;;;;5031848;28;20183;-69
2023/09/25 07:26:48;;;;;;;5.80;3.90;;;10.20;22.70;;;;;;5030758;28;20261;-69
2023/09/25 07:29:14;;;;;;;5.93;3.37;;;10.30;22.80;;;;;;5031958;28;20256;-70
2023/09/25 07:31:40;;;;;;;4.60;3.13;;;10.50;23.00;;;;;;5031872;28;20226;-70
2023/09/25 07:34:05;;;;;;;4.70;3.70;;;10.60;21.00;;;;;;5031856;28;20807;-70
2023/09/25 07:36:31;;;;;;;6.23;3.87;;;10.70;21.10;;;;;;5031932;28;20417;-70
2023/09/25 07:38:56;;;;;;;5.73;3.63;;;11.30;20.10;;;;;;5031354;28;20579;-70
2023/09/25 07:41:24;;;;;;;5.33;2.93;;;11.70;17.70;;;;;;5030788;28;20527;-70
2023/09/25 07:43:49;;;;;;;7.07;3.20;;;11.80;16.20;;;;;;5031393;28;20199;-70
2023/09/25 07:46:17;;;;;;;5.97;3.13;;;12.00;15.40;;;;;;5031883;28;20560;-70
2023/09/25 07:48:43;;;;;;;7.03;3.30;;;12.60;13.40;;;;;;5031671;28;20187;-70
2023/09/25 07:51:08;;;;;;;4.37;3.10;;;12.70;13.00;;;;;;5032305;28;20424;-70
2023/09/25 07:53:34;;;;;;;9.70;3.33;;;12.70;11.80;;;;;;5031530;28;20661;-70
2023/09/25 07:56:00;;;;;;;5.40;3.10;;;12.70;11.60;;;;;;5031772;28;20453;-70
2023/09/25 07:58:28;;;;;;;6.00;2.60;;;12.80;12.50;;;;;;5031195;28;20571;-70
2023/09/25 08:00:56;;;;;;;4.47;2.63;;;13.00;11.80;;;;;;5031769;28;20187;-70
2023/09/25 08:03:23;;;;;;;6.30;2.93;;;13.10;11.80;;;;;;5030174;28;20476;-71
2023/09/25 08:05:48;;;;;;;3.50;3.10;;;13.60;10.20;;;;;;5031680;28;20410;-70
2023/09/25 08:08:15;;;;;;;8.50;2.70;;;14.00;8.90;;;;;;5045170;23;20588;-69
2023/09/25 08:10:43;;;;;;;3.97;3.00;;;13.90;7.90;;;;;;5047377;28;20262;-69
2023/09/25 08:13:10;;;;;;;6.83;2.97;;;14.00;8.00;;;;;;5031985;28;20407;-69
2023/09/25 08:15:36;;;;;;;5.93;2.73;;;14.40;6.00;;;;;;5032537;28;20408;-69
2023/09/25 08:18:02;;;;;;;4.43;2.83;;;14.30;5.70;;;;;;5034787;28;20444;-70
2023/09/25 08:20:28;;;;;;;4.23;3.10;;;14.30;5.80;;;;;;5036631;28;20405;-70
2023/09/25 08:22:54;;;;;;;6.10;4.03;;;14.70;5.10;;;;;;5034489;28;20214;-69
2023/09/25 08:25:21;;;;;;;5.13;3.40;;;14.50;5.90;;;;;;5036286;28;20258;-69
2023/09/25 08:27:48;;;;;;;6.13;3.37;;;14.30;5.60;;;;;;5035892;28;20436;-70
2023/09/25 08:30:16;;;;;;;5.40;3.43;;;14.10;6.80;;;;;;5036005;28;20406;-69
2023/09/25 08:32:42;;;;;;;3.57;2.57;;;14.10;6.90;;;;;;5035510;28;20503;-70
2023/09/25 08:35:09;;;;;;;3.83;2.70;;;13.90;7.40;;;;;;5035714;28;20507;-70
2023/09/25 08:37:36;;;;;;;4.30;2.80;;;14.00;7.80;;;;;;5035748;28;20898;-70
2023/09/25 08:40:02;;;;;;;4.10;2.73;;;14.10;7.50;;;;;;5035495;28;20492;-70
2023/09/25 08:42:28;;;;;;;3.80;2.53;;;14.30;8.20;;;;;;5035491;28;20460;-70
2023/09/25 08:45:00;;;;;;;2.97;2.57;;;14.30;6.00;;;;;;5035700;28;20520;-69
2023/09/25 08:47:27;;;;;;;3.30;2.33;;;14.40;6.80;;;;;;5034014;28;20285;-69
2023/09/25 08:49:53;;;;;;;6.67;3.87;;;14.50;7.50;;;;;;5035269;28;20409;-69
2023/09/25 08:52:21;;;;;;;6.70;3.13;;;14.60;6.60;;;;;;5035137;28;20421;-70
2023/09/25 08:54:48;;;;;;;7.90;3.30;;;14.70;7.20;;;;;;5033633;28;20508;-70
2023/09/25 08:57:15;;;;;;;3.70;2.90;;;14.80;5.40;;;;;;5034987;28;20417;-70
2023/09/25 08:59:45;;;;;;;3.80;2.63;;;14.90;5.70;;;;;;5035160;28;20414;-69
2023/09/25 09:02:12;;;;;;;5.00;2.43;;;15.00;5.80;;;;;;5035012;28;20463;-70
2023/09/25 09:04:37;;;;;;;4.70;3.33;;;15.10;4.20;;;;;;5033472;28;21028;-70
2023/09/25 09:07:05;;;;;;;4.83;2.90;;;15.10;3.90;;;;;;5034845;28;20493;-70
2023/09/25 09:09:34;;;;;;;5.93;2.40;;;15.10;3.60;;;;;;5034793;28;20605;-70
2023/09/25 09:12:00;;;;;;;4.00;2.33;;;15.20;3.90;;;;;;5034976;28;20855;-70
2023/09/25 09:14:43;;;;;;;4.13;2.80;;;15.30;2.90;;;;;;5034704;28;20489;-70
2023/09/25 09:17:10;;;;;;;5.33;3.17;;;15.40;3.20;;;;;;5033670;28;20175;-69
2023/09/25 09:19:47;;;;;;;4.73;2.80;;;15.60;2.00;;;;;;5034743;28;20437;-70
2023/09/25 09:22:15;;;;;;;6.10;2.83;;;15.60;1.50;;;;;;5034763;28;20452;-69
2023/09/25 09:24:41;;;;;;;3.70;2.70;;;15.70;1.10;;;;;;5033306;28;20426;-69
2023/09/25 09:27:07;;;;;;;3.83;2.73;;;15.90;1.50;;;;;;5034709;28;20461;-69
2023/09/25 09:29:42;;;;;;;4.60;2.83;;;15.90;1.00;;;;;;5033730;28;20493;-70
2023/09/25 09:32:08;;;;;;;5.37;3.10;;;16.10;1.10;;;;;;5034453;28;20448;-69
2023/09/25 09:34:35;;;;;;;4.30;3.20;;;16.30;1.00;;;;;;5034229;28;20968;-70
2023/09/25 09:37:01;;;;;;;4.60;2.87;;;16.40;1.30;;;;;;5034783;28;20917;-69
2023/09/25 09:39:34;;;;;;;7.47;3.03;;;16.50;1.00;;;;;;5034322;28;20414;-70
2023/09/25 09:42:03;;;;;;;11.77;3.40;;;16.70;1.00;;;;;;5034409;28;20654;-69
2023/09/25 09:44:29;;;;;;;3.43;2.67;;;16.80;1.60;;;;;;5034353;28;20402;-69
2023/09/25 09:46:56;;;;;;;4.97;3.20;;;16.90;1.90;;;;;;5034114;28;20836;-69
2023/09/25 09:49:24;;;;;;;6.63;3.27;;;17.00;2.00;;;;;;5034200;28;20433;-69
2023/09/25 09:51:51;;;;;;;3.20;2.67;;;17.10;1.90;;;;;;5032952;28;20951;-70
2023/09/25 09:54:21;;;;;;;5.33;3.37;;;17.30;1.10;;;;;;5034109;28;20783;-70
2023/09/25 09:56:48;;;;;;;3.70;2.90;;;17.40;1.00;;;;;;5034389;28;20405;-70
2023/09/25 09:59:17;;;;;;;3.23;2.60;;;17.50;1.00;;;;;;5033827;28;20437;-70
2023/09/25 10:01:45;;;;;;;4.20;2.90;;;17.50;1.00;;;;;;5034503;28;20416;-70
2023/09/25 10:04:11;;;;;;;5.73;3.30;;;17.50;1.00;;;;;;5033669;28;20557;-70
2023/09/25 10:06:53;;;;;;;3.50;3.20;;;17.70;1.00;;;;;;5034146;28;20471;-70
2023/09/25 10:09:20;;;;;;;3.97;2.90;;;17.70;1.00;;;;;;5033645;28;20537;-70
2023/09/25 10:11:47;;;;;;;2.93;2.50;;;17.80;1.00;;;;;;5033890;28;20421;-70
2023/09/25 10:14:12;;;;;;;3.10;2.80;;;17.70;1.00;;;;;;5033664;28;20450;-70
2023/09/25 10:17:00;;;;;;;4.17;2.90;;;17.80;1.00;;;;;;5034102;28;20472;-70
2023/09/25 10:19:41;;;;;;;5.63;2.93;;;17.90;1.00;;;;;;5033717;28;20649;-71
2023/09/25 10:22:13;;;;;;;4.43;3.10;;;18.20;1.00;;;;;;5033467;28;20414;-70
2023/09/25 10:24:41;;;;;;;3.37;3.03;;;18.40;1.00;;;;;;5033480;28;20414;-70
2023/09/25 10:27:10;;;;;;;4.60;3.60;;;18.60;1.00;;;;;;5033441;28;20414;-70
2023/09/25 10:29:37;;;;;;;3.80;2.40;;;18.70;1.00;;;;;;5033612;28;20418;-70
2023/09/25 10:32:03;;;;;;;3.63;3.00;;;18.80;1.00;;;;;;5033479;28;20492;-70
2023/09/25 10:34:31;;;;;;;4.60;2.83;;;18.90;1.00;;;;;;5033170;28;20414;-71
2023/09/25 10:37:00;;;;;;;3.60;2.67;;;19.00;1.00;;;;;;5033258;28;20927;-71
2023/09/25 10:39:27;;;;;;;3.10;2.80;;;19.10;1.00;;;;;;5033327;28;20414;-69
2023/09/25 10:42:07;;;;;;;3.30;2.97;;;19.10;1.00;;;;;;5032229;28;20923;-70
2023/09/25 10:44:36;;;;;;;4.50;2.50;;;19.10;1.00;;;;;;5033955;28;20406;-70
2023/09/25 10:47:06;;;;;;;4.07;3.03;;;19.20;1.00;;;;;;5032056;28;20421;-70
2023/09/25 10:49:35;;;;;;;5.23;3.17;;;19.40;1.00;;;;;;5033441;28;20410;-70
2023/09/25 10:52:01;;;;;;;2.97;2.67;;;19.60;1.00;;;;;;5033253;28;20409;-70
2023/09/25 10:54:26;;;;;;;3.03;2.73;;;19.60;1.00;;;;;;5032752;28;20428;-70
2023/09/25 10:56:53;;;;;;;4.80;3.37;;;19.70;1.00;;;;;;5033283;28;20402;-70
2023/09/25 10:59:19;;;;;;;4.03;2.70;;;19.80;1.00;;;;;;5032860;28;20219;-70
2023/09/25 11:01:44;;;;;;;3.43;3.00;;;19.70;1.00;;;;;;5032674;28;20425;-70
2023/09/25 11:04:11;;;;;;;4.30;2.97;;;19.80;1.00;;;;;;5031429;28;20457;-70
2023/09/25 11:06:37;;;;;;;3.17;2.87;;;19.80;1.00;;;;;;5032925;28;20538;-70
2023/09/25 11:09:05;;;;;;;3.73;3.20;;;20.00;1.00;;;;;;5032589;28;20457;-70
2023/09/25 11:11:31;;;;;;;9.13;3.60;;;20.00;1.00;;;;;;5031531;28;20422;-70
2023/09/25 11:13:58;;;;;;;13.27;6.27;;;20.10;1.00;;;;;;5032482;28;20414;-70
2023/09/25 11:16:24;;;;;;;8.70;3.80;;;20.10;1.00;;;;;;5032454;28;20801;-70
2023/09/25 11:19:02;;;;;;;3.83;2.90;;;20.20;1.00;;;;;;5032460;28;20437;-70
2023/09/25 11:21:31;;;;;;;5.50;3.03;;;20.30;1.00;;;;;;5032421;28;20421;-70
2023/09/25 11:23:56;;;;;;;5.37;3.13;;;20.50;1.00;;;;;;5032063;28;20491;-70
2023/09/25 11:26:25;;;;;;;3.13;2.80;;;20.50;1.00;;;;;;5032319;28;20418;-70
2023/09/25 11:28:54;;;;;;;3.00;2.67;;;20.40;1.00;;;;;;5032261;28;20249;-70
2023/09/25 11:31:20;;;;;;;4.17;2.53;;;20.50;1.00;;;;;;5032108;28;20418;-70
2023/09/25 11:33:47;;;;;;;2.80;2.60;;;20.60;1.00;;;;;;5032196;28;20418;-70
2023/09/25 11:36:12;;;;;;;6.00;3.30;;;20.70;1.00;;;;;;5032582;28;20431;-70
2023/09/25 11:38:38;;;;;;;2.90;2.70;;;20.80;1.00;;;;;;5032263;28;20516;-70
2023/09/25 11:41:05;;;;;;;3.83;3.53;;;20.80;1.00;;;;;;5031952;28;20258;-70
2023/09/25 11:43:35;;;;;;;3.97;3.33;;;20.90;1.00;;;;;;5031763;28;20199;-70
2023/09/25 11:46:00;;;;;;;6.10;3.97;;;21.00;1.00;;;;;;5032231;28;20442;-70
2023/09/25 11:48:26;;;;;;;3.47;3.17;;;21.00;1.00;;;;;;5032120;28;20425;-70
2023/09/25 11:50:51;;;;;;;3.27;2.97;;;21.10;1.00;;;;;;5030776;28;20167;-70
2023/09/25 11:53:17;;;;;;;3.43;3.10;;;21.10;1.00;;;;;;5030456;28;20229;-70
2023/09/25 11:55:43;;;;;;;3.60;3.30;;;21.20;1.00;;;;;;5031984;28;20351;-70
2023/09/25 11:58:09;;;;;;;4.30;3.53;;;21.20;1.00;;;;;;5031780;28;20241;-70
2023/09/25 12:00:34;;;;;;;4.10;3.60;;;21.30;1.00;;;;;;5030420;28;20228;-70
2023/09/25 12:03:02;;;;;;;4.07;3.70;;;21.40;1.00;;;;;;5030231;28;20454;-70
2023/09/25 12:05:28;;;;;;;3.13;2.70;;;21.40;1.00;;;;;;5031900;28;20558;-70
2023/09/25 12:07:53;;;;;;;3.83;3.00;;;21.60;1.00;;;;;;5030609;28;20460;-70
2023/09/25 12:10:19;;;;;;;3.43;3.13;;;21.80;1.00;;;;;;5030339;28;20680;-70
2023/09/25 12:12:47;;;;;;;4.20;3.10;;;22.00;1.00;;;;;;5031535;28;20731;-70
2023/09/25 12:15:13;;;;;;;3.10;2.90;;;22.10;1.00;;;;;;5032025;28;20779;-71
2023/09/25 12:17:40;;;;;;;3.90;3.40;;;21.90;1.00;;;;;;5030621;28;20433;-70
2023/09/25 12:20:11;;;;;;;5.03;3.20;;;22.10;1.00;;;;;;5031804;28;20406;-71
2023/09/25 12:22:42;;;;;;;3.63;3.23;;;22.30;1.00;;;;;;5030534;28;20478;-70
2023/09/25 12:25:12;;;;;;;4.40;3.27;;;22.30;1.00;;;;;;5030518;28;20795;-70
2023/09/25 12:27:39;;;;;;;5.07;3.20;;;22.20;1.00;;;;;;5030600;28;20433;-70
2023/09/25 12:30:07;;;;;;;3.27;3.03;;;22.20;1.00;;;;;;5031869;28;20421;-70
2023/09/25 12:32:34;;;;;;;5.47;3.67;;;22.40;1.00;;;;;;5031732;28;20422;-71
2023/09/25 12:34:59;;;;;;;3.87;3.53;;;22.60;1.00;;;;;;5031496;28;20414;-70
2023/09/25 12:37:25;;;;;;;5.10;3.23;;;22.60;1.00;;;;;;5030769;28;20953;-71
2023/09/25 12:39:51;;;;;;;3.63;3.30;;;22.70;1.00;;;;;;5031783;28;20986;-70
2023/09/25 12:42:17;;;;;;;2.87;2.67;;;22.70;1.00;;;;;;5031616;28;20199;-70
2023/09/25 12:44:43;;;;;;;3.03;2.70;;;22.60;1.00;;;;;;5030170;28;20431;-70
2023/09/25 12:47:08;;;;;;;4.87;3.00;;;22.60;1.00;;;;;;5031349;28;20182;-70
2023/09/25 12:49:34;;;;;;;11.20;4.67;;;22.50;1.00;;;;;;5031695;28;20171;-70
2023/09/25 12:51:59;;;;;;;3.73;3.37;;;22.60;1.00;;;;;;5031378;28;20241;-70